sensor_id;sensor_type;location;lat;lon;timestamp;P1;durP1;ratioP1;P2;durP2;ratioP2
6131;SDS011;3097;42.692;23.278;2023-04-23T00:01:12;29.23;;;17.73;;
6131;SDS011;3097;42.692;23.278;2023-04-23T00:03:38;35.97;;;19.17;;
6131;SDS011;3097;42.692;23.278;2023-04-23T00:06:07;32.27;;;17.70;;
6131;SDS011;3097;42.692;23.278;2023-04-23T00:08:37;25.03;;;15.77;;
6131;SDS011;3097;42.692;23.278;2023-04-23T00:11:04;27.67;;;14.93;;
6131;SDS011;3097;42.692;23.278;2023-04-23T00:13:30;26.43;;;14.13;;
6131;SDS011;3097;42.692;23.278;2023-04-23T00:15:56;22.40;;;12.90;;
6131;SDS011;3097;42.692;23.278;2023-04-23T00:18:21;17.93;;;12.67;;
6131;SDS011;3097;42.692;23.278;2023-04-23T00:20:47;23.90;;;12.50;;
6131;SDS011;3097;42.692;23.278;2023-04-23T00:23:12;19.27;;;12.27;;
6131;SDS011;3097;42.692;23.278;2023-04-23T00:25:37;18.03;;;11.27;;
6131;SDS011;3097;42.692;23.278;2023-04-23T00:28:03;17.33;;;11.50;;
6131;SDS011;3097;42.692;23.278;2023-04-23T00:30:29;17.83;;;11.63;;
6131;SDS011;3097;42.692;23.278;2023-04-23T00:32:54;13.33;;;10.53;;
6131;SDS011;3097;42.692;23.278;2023-04-23T00:35:20;12.90;;;9.87;;
6131;SDS011;3097;42.692;23.278;2023-04-23T00:37:45;14.77;;;10.47;;
6131;SDS011;3097;42.692;23.278;2023-04-23T00:40:11;15.80;;;10.27;;
6131;SDS011;3097;42.692;23.278;2023-04-23T00:42:37;17.37;;;10.33;;
6131;SDS011;3097;42.692;23.278;2023-04-23T00:45:04;15.50;;;9.90;;
6131;SDS011;3097;42.692;23.278;2023-04-23T00:47:32;12.73;;;9.37;;
6131;SDS011;3097;42.692;23.278;2023-04-23T00:49:59;13.60;;;9.80;;
6131;SDS011;3097;42.692;23.278;2023-04-23T00:52:25;17.03;;;9.73;;
6131;SDS011;3097;42.692;23.278;2023-04-23T00:54:50;13.13;;;9.77;;
6131;SDS011;3097;42.692;23.278;2023-04-23T00:57:16;15.07;;;10.00;;
6131;SDS011;3097;42.692;23.278;2023-04-23T00:59:42;15.77;;;10.90;;
6131;SDS011;3097;42.692;23.278;2023-04-23T01:02:09;20.57;;;11.90;;
6131;SDS011;3097;42.692;23.278;2023-04-23T01:04:34;21.80;;;11.87;;
6131;SDS011;3097;42.692;23.278;2023-04-23T01:07:02;23.83;;;12.43;;
6131;SDS011;3097;42.692;23.278;2023-04-23T01:09:27;20.87;;;12.57;;
6131;SDS011;3097;42.692;23.278;2023-04-23T01:11:53;22.20;;;11.90;;
6131;SDS011;3097;42.692;23.278;2023-04-23T01:14:19;20.73;;;11.33;;
6131;SDS011;3097;42.692;23.278;2023-04-23T01:16:45;18.73;;;10.43;;
6131;SDS011;3097;42.692;23.278;2023-04-23T01:19:11;20.97;;;11.60;;
6131;SDS011;3097;42.692;23.278;2023-04-23T01:21:37;19.83;;;12.23;;
6131;SDS011;3097;42.692;23.278;2023-04-23T01:24:07;19.83;;;12.07;;
6131;SDS011;3097;42.692;23.278;2023-04-23T01:26:33;20.80;;;12.43;;
6131;SDS011;3097;42.692;23.278;2023-04-23T01:28:59;18.13;;;11.07;;
6131;SDS011;3097;42.692;23.278;2023-04-23T01:31:26;17.77;;;11.37;;
6131;SDS011;3097;42.692;23.278;2023-04-23T01:33:53;16.97;;;11.17;;
6131;SDS011;3097;42.692;23.278;2023-04-23T01:36:20;16.73;;;10.67;;
6131;SDS011;3097;42.692;23.278;2023-04-23T01:38:47;13.93;;;9.30;;
6131;SDS011;3097;42.692;23.278;2023-04-23T01:41:12;17.47;;;10.27;;
6131;SDS011;3097;42.692;23.278;2023-04-23T01:43:38;17.37;;;10.20;;
6131;SDS011;3097;42.692;23.278;2023-04-23T01:46:06;16.70;;;10.90;;
6131;SDS011;3097;42.692;23.278;2023-04-23T01:48:32;16.47;;;10.83;;
6131;SDS011;3097;42.692;23.278;2023-04-23T01:50:57;22.77;;;11.37;;
6131;SDS011;3097;42.692;23.278;2023-04-23T01:53:24;16.43;;;10.10;;
6131;SDS011;3097;42.692;23.278;2023-04-23T01:55:50;17.43;;;10.97;;
6131;SDS011;3097;42.692;23.278;2023-04-23T01:58:16;17.80;;;11.27;;
6131;SDS011;3097;42.692;23.278;2023-04-23T02:00:43;19.60;;;12.13;;
6131;SDS011;3097;42.692;23.278;2023-04-23T02:03:08;21.10;;;11.63;;
6131;SDS011;3097;42.692;23.278;2023-04-23T02:05:34;23.37;;;12.73;;
6131;SDS011;3097;42.692;23.278;2023-04-23T02:08:01;16.30;;;11.37;;
6131;SDS011;3097;42.692;23.278;2023-04-23T02:10:27;21.47;;;12.50;;
6131;SDS011;3097;42.692;23.278;2023-04-23T02:12:54;16.57;;;11.47;;
6131;SDS011;3097;42.692;23.278;2023-04-23T02:15:23;16.70;;;10.63;;
6131;SDS011;3097;42.692;23.278;2023-04-23T02:17:48;16.40;;;11.10;;
6131;SDS011;3097;42.692;23.278;2023-04-23T02:20:16;15.40;;;10.77;;
6131;SDS011;3097;42.692;23.278;2023-04-23T02:22:42;16.77;;;9.90;;
6131;SDS011;3097;42.692;23.278;2023-04-23T02:25:08;14.30;;;9.93;;
6131;SDS011;3097;42.692;23.278;2023-04-23T02:27:34;12.93;;;8.20;;
6131;SDS011;3097;42.692;23.278;2023-04-23T02:30:00;16.97;;;9.90;;
6131;SDS011;3097;42.692;23.278;2023-04-23T02:32:25;13.47;;;9.70;;
6131;SDS011;3097;42.692;23.278;2023-04-23T02:34:52;16.70;;;9.63;;
6131;SDS011;3097;42.692;23.278;2023-04-23T02:37:17;18.47;;;9.90;;
6131;SDS011;3097;42.692;23.278;2023-04-23T02:39:43;14.67;;;10.23;;
6131;SDS011;3097;42.692;23.278;2023-04-23T02:42:08;15.77;;;10.67;;
6131;SDS011;3097;42.692;23.278;2023-04-23T02:44:34;18.97;;;11.03;;
6131;SDS011;3097;42.692;23.278;2023-04-23T02:47:00;20.17;;;11.97;;
6131;SDS011;3097;42.692;23.278;2023-04-23T02:49:25;23.80;;;13.40;;
6131;SDS011;3097;42.692;23.278;2023-04-23T02:51:51;34.40;;;14.67;;
6131;SDS011;3097;42.692;23.278;2023-04-23T02:54:16;26.53;;;15.33;;
6131;SDS011;3097;42.692;23.278;2023-04-23T02:56:42;29.30;;;15.03;;
6131;SDS011;3097;42.692;23.278;2023-04-23T02:59:08;28.70;;;14.57;;
6131;SDS011;3097;42.692;23.278;2023-04-23T03:01:33;23.73;;;13.97;;
6131;SDS011;3097;42.692;23.278;2023-04-23T03:03:58;30.10;;;13.80;;
6131;SDS011;3097;42.692;23.278;2023-04-23T03:06:25;23.97;;;13.27;;
6131;SDS011;3097;42.692;23.278;2023-04-23T03:08:50;25.73;;;14.73;;
6131;SDS011;3097;42.692;23.278;2023-04-23T03:11:16;24.00;;;13.63;;
6131;SDS011;3097;42.692;23.278;2023-04-23T03:13:41;24.60;;;14.23;;
6131;SDS011;3097;42.692;23.278;2023-04-23T03:16:07;19.93;;;13.63;;
6131;SDS011;3097;42.692;23.278;2023-04-23T03:18:33;23.97;;;13.17;;
6131;SDS011;3097;42.692;23.278;2023-04-23T03:20:58;33.20;;;14.23;;
6131;SDS011;3097;42.692;23.278;2023-04-23T03:23:24;22.57;;;13.97;;
6131;SDS011;3097;42.692;23.278;2023-04-23T03:25:49;26.60;;;13.93;;
6131;SDS011;3097;42.692;23.278;2023-04-23T03:28:15;25.83;;;13.10;;
6131;SDS011;3097;42.692;23.278;2023-04-23T03:30:40;25.47;;;13.70;;
6131;SDS011;3097;42.692;23.278;2023-04-23T03:33:06;25.67;;;12.80;;
6131;SDS011;3097;42.692;23.278;2023-04-23T03:35:32;20.43;;;12.57;;
6131;SDS011;3097;42.692;23.278;2023-04-23T03:37:57;25.10;;;13.30;;
6131;SDS011;3097;42.692;23.278;2023-04-23T03:40:23;23.70;;;12.63;;
6131;SDS011;3097;42.692;23.278;2023-04-23T03:42:48;20.67;;;13.07;;
6131;SDS011;3097;42.692;23.278;2023-04-23T03:45:14;29.00;;;13.10;;
6131;SDS011;3097;42.692;23.278;2023-04-23T03:47:41;21.83;;;12.93;;
6131;SDS011;3097;42.692;23.278;2023-04-23T03:50:07;26.27;;;13.83;;
6131;SDS011;3097;42.692;23.278;2023-04-23T03:52:34;25.67;;;13.53;;
6131;SDS011;3097;42.692;23.278;2023-04-23T03:55:00;20.80;;;12.77;;
6131;SDS011;3097;42.692;23.278;2023-04-23T03:57:25;23.87;;;13.47;;
6131;SDS011;3097;42.692;23.278;2023-04-23T03:59:51;25.33;;;13.10;;
6131;SDS011;3097;42.692;23.278;2023-04-23T04:02:16;25.00;;;13.17;;
6131;SDS011;3097;42.692;23.278;2023-04-23T04:04:42;21.50;;;13.37;;
6131;SDS011;3097;42.692;23.278;2023-04-23T04:07:10;22.87;;;13.60;;
6131;SDS011;3097;42.692;23.278;2023-04-23T04:09:36;28.47;;;13.67;;
6131;SDS011;3097;42.692;23.278;2023-04-23T04:12:03;26.10;;;13.57;;
6131;SDS011;3097;42.692;23.278;2023-04-23T04:14:29;22.73;;;13.17;;
6131;SDS011;3097;42.692;23.278;2023-04-23T04:16:55;22.57;;;13.43;;
6131;SDS011;3097;42.692;23.278;2023-04-23T04:19:21;24.67;;;14.37;;
6131;SDS011;3097;42.692;23.278;2023-04-23T04:21:46;26.40;;;14.60;;
6131;SDS011;3097;42.692;23.278;2023-04-23T04:24:12;24.10;;;14.00;;
6131;SDS011;3097;42.692;23.278;2023-04-23T04:26:37;24.07;;;13.53;;
6131;SDS011;3097;42.692;23.278;2023-04-23T04:29:03;20.20;;;12.23;;
6131;SDS011;3097;42.692;23.278;2023-04-23T04:31:29;19.63;;;12.80;;
6131;SDS011;3097;42.692;23.278;2023-04-23T04:33:55;22.47;;;13.97;;
6131;SDS011;3097;42.692;23.278;2023-04-23T04:36:21;22.50;;;14.13;;
6131;SDS011;3097;42.692;23.278;2023-04-23T04:38:49;19.37;;;12.80;;
6131;SDS011;3097;42.692;23.278;2023-04-23T04:41:16;17.07;;;12.27;;
6131;SDS011;3097;42.692;23.278;2023-04-23T04:43:44;19.80;;;12.40;;
6131;SDS011;3097;42.692;23.278;2023-04-23T04:46:10;22.40;;;12.73;;
6131;SDS011;3097;42.692;23.278;2023-04-23T04:48:37;21.27;;;13.07;;
6131;SDS011;3097;42.692;23.278;2023-04-23T04:51:03;19.73;;;13.10;;
6131;SDS011;3097;42.692;23.278;2023-04-23T04:53:28;17.23;;;12.30;;
6131;SDS011;3097;42.692;23.278;2023-04-23T04:55:54;21.47;;;13.47;;
6131;SDS011;3097;42.692;23.278;2023-04-23T04:58:19;24.47;;;14.87;;
6131;SDS011;3097;42.692;23.278;2023-04-23T05:00:45;21.30;;;14.70;;
6131;SDS011;3097;42.692;23.278;2023-04-23T05:03:13;20.83;;;12.50;;
6131;SDS011;3097;42.692;23.278;2023-04-23T05:05:38;13.13;;;9.20;;
6131;SDS011;3097;42.692;23.278;2023-04-23T05:08:04;13.50;;;9.20;;
6131;SDS011;3097;42.692;23.278;2023-04-23T05:10:29;11.03;;;8.97;;
6131;SDS011;3097;42.692;23.278;2023-04-23T05:12:58;10.63;;;8.27;;
6131;SDS011;3097;42.692;23.278;2023-04-23T05:15:24;15.97;;;8.97;;
6131;SDS011;3097;42.692;23.278;2023-04-23T05:17:50;10.27;;;8.53;;
6131;SDS011;3097;42.692;23.278;2023-04-23T05:20:17;9.50;;;8.60;;
6131;SDS011;3097;42.692;23.278;2023-04-23T05:22:43;11.27;;;9.20;;
6131;SDS011;3097;42.692;23.278;2023-04-23T05:25:09;12.80;;;9.43;;
6131;SDS011;3097;42.692;23.278;2023-04-23T05:27:36;9.13;;;8.23;;
6131;SDS011;3097;42.692;23.278;2023-04-23T05:30:02;12.97;;;11.27;;
6131;SDS011;3097;42.692;23.278;2023-04-23T05:32:29;16.13;;;9.80;;
6131;SDS011;3097;42.692;23.278;2023-04-23T05:34:55;11.53;;;10.13;;
6131;SDS011;3097;42.692;23.278;2023-04-23T05:37:21;15.10;;;10.97;;
6131;SDS011;3097;42.692;23.278;2023-04-23T05:39:47;11.87;;;10.20;;
6131;SDS011;3097;42.692;23.278;2023-04-23T05:42:12;11.03;;;9.93;;
6131;SDS011;3097;42.692;23.278;2023-04-23T05:44:38;11.20;;;9.23;;
6131;SDS011;3097;42.692;23.278;2023-04-23T05:47:06;11.57;;;8.80;;
6131;SDS011;3097;42.692;23.278;2023-04-23T05:49:33;10.33;;;8.97;;
6131;SDS011;3097;42.692;23.278;2023-04-23T05:51:58;10.10;;;9.00;;
6131;SDS011;3097;42.692;23.278;2023-04-23T05:54:24;10.07;;;9.07;;
6131;SDS011;3097;42.692;23.278;2023-04-23T05:56:49;9.07;;;7.90;;
6131;SDS011;3097;42.692;23.278;2023-04-23T05:59:15;8.57;;;7.75;;
6131;SDS011;3097;42.692;23.278;2023-04-23T06:01:40;10.48;;;8.48;;
6131;SDS011;3097;42.692;23.278;2023-04-23T06:04:06;11.35;;;8.50;;
6131;SDS011;3097;42.692;23.278;2023-04-23T06:06:35;8.47;;;7.77;;
6131;SDS011;3097;42.692;23.278;2023-04-23T06:09:00;9.07;;;8.27;;
6131;SDS011;3097;42.692;23.278;2023-04-23T06:11:26;10.17;;;9.13;;
6131;SDS011;3097;42.692;23.278;2023-04-23T06:13:51;9.93;;;9.00;;
6131;SDS011;3097;42.692;23.278;2023-04-23T06:16:16;11.50;;;9.27;;
6131;SDS011;3097;42.692;23.278;2023-04-23T06:18:42;10.10;;;9.17;;
6131;SDS011;3097;42.692;23.278;2023-04-23T06:21:10;10.30;;;8.97;;
6131;SDS011;3097;42.692;23.278;2023-04-23T06:23:39;9.88;;;8.98;;
6131;SDS011;3097;42.692;23.278;2023-04-23T06:26:04;10.40;;;9.27;;
6131;SDS011;3097;42.692;23.278;2023-04-23T06:28:30;11.20;;;10.10;;
6131;SDS011;3097;42.692;23.278;2023-04-23T06:30:55;10.23;;;9.10;;
6131;SDS011;3097;42.692;23.278;2023-04-23T06:33:21;10.27;;;8.30;;
6131;SDS011;3097;42.692;23.278;2023-04-23T06:35:46;9.82;;;8.93;;
6131;SDS011;3097;42.692;23.278;2023-04-23T06:38:12;10.68;;;9.68;;
6131;SDS011;3097;42.692;23.278;2023-04-23T06:40:37;10.18;;;9.15;;
6131;SDS011;3097;42.692;23.278;2023-04-23T06:43:03;10.35;;;9.32;;
6131;SDS011;3097;42.692;23.278;2023-04-23T06:45:29;9.82;;;8.93;;
6131;SDS011;3097;42.692;23.278;2023-04-23T06:47:56;9.52;;;8.63;;
6131;SDS011;3097;42.692;23.278;2023-04-23T06:50:21;9.45;;;8.55;;
6131;SDS011;3097;42.692;23.278;2023-04-23T06:52:47;8.80;;;8.05;;
6131;SDS011;3097;42.692;23.278;2023-04-23T06:55:12;8.30;;;7.50;;
6131;SDS011;3097;42.692;23.278;2023-04-23T06:57:38;9.13;;;8.35;;
6131;SDS011;3097;42.692;23.278;2023-04-23T07:00:03;7.95;;;7.20;;
6131;SDS011;3097;42.692;23.278;2023-04-23T07:02:35;7.50;;;6.70;;
6131;SDS011;3097;42.692;23.278;2023-04-23T07:05:01;7.25;;;6.65;;
6131;SDS011;3097;42.692;23.278;2023-04-23T07:07:27;8.13;;;7.33;;
6131;SDS011;3097;42.692;23.278;2023-04-23T07:09:53;7.50;;;6.67;;
6131;SDS011;3097;42.692;23.278;2023-04-23T07:12:19;10.43;;;9.30;;
6131;SDS011;3097;42.692;23.278;2023-04-23T07:14:45;7.80;;;7.10;;
6131;SDS011;3097;42.692;23.278;2023-04-23T07:17:10;7.87;;;7.17;;
6131;SDS011;3097;42.692;23.278;2023-04-23T07:19:36;7.77;;;7.17;;
6131;SDS011;3097;42.692;23.278;2023-04-23T07:22:02;7.87;;;7.30;;
6131;SDS011;3097;42.692;23.278;2023-04-23T07:24:27;6.97;;;6.40;;
6131;SDS011;3097;42.692;23.278;2023-04-23T07:26:53;8.33;;;7.20;;
6131;SDS011;3097;42.692;23.278;2023-04-23T07:29:19;7.87;;;7.17;;
6131;SDS011;3097;42.692;23.278;2023-04-23T07:31:47;8.50;;;7.70;;
6131;SDS011;3097;42.692;23.278;2023-04-23T07:34:13;8.33;;;7.53;;
6131;SDS011;3097;42.692;23.278;2023-04-23T07:36:38;8.13;;;7.27;;
6131;SDS011;3097;42.692;23.278;2023-04-23T07:39:04;8.00;;;7.13;;
6131;SDS011;3097;42.692;23.278;2023-04-23T07:41:30;8.33;;;7.50;;
6131;SDS011;3097;42.692;23.278;2023-04-23T07:43:56;8.00;;;7.20;;
6131;SDS011;3097;42.692;23.278;2023-04-23T07:46:22;7.73;;;6.63;;
6131;SDS011;3097;42.692;23.278;2023-04-23T07:48:47;8.70;;;7.97;;
6131;SDS011;3097;42.692;23.278;2023-04-23T07:51:12;9.13;;;7.57;;
6131;SDS011;3097;42.692;23.278;2023-04-23T07:53:38;8.13;;;7.23;;
6131;SDS011;3097;42.692;23.278;2023-04-23T07:56:03;8.60;;;7.80;;
6131;SDS011;3097;42.692;23.278;2023-04-23T07:58:29;9.17;;;7.80;;
6131;SDS011;3097;42.692;23.278;2023-04-23T08:00:56;7.50;;;6.80;;
6131;SDS011;3097;42.692;23.278;2023-04-23T08:03:22;10.43;;;8.03;;
6131;SDS011;3097;42.692;23.278;2023-04-23T08:05:48;7.50;;;6.70;;
6131;SDS011;3097;42.692;23.278;2023-04-23T08:08:13;8.20;;;7.40;;
6131;SDS011;3097;42.692;23.278;2023-04-23T08:10:42;8.70;;;7.20;;
6131;SDS011;3097;42.692;23.278;2023-04-23T08:13:07;9.07;;;7.50;;
6131;SDS011;3097;42.692;23.278;2023-04-23T08:15:33;10.00;;;6.27;;
6131;SDS011;3097;42.692;23.278;2023-04-23T08:17:58;8.60;;;7.80;;
6131;SDS011;3097;42.692;23.278;2023-04-23T08:20:24;8.10;;;7.40;;
6131;SDS011;3097;42.692;23.278;2023-04-23T08:22:50;7.90;;;7.10;;
6131;SDS011;3097;42.692;23.278;2023-04-23T08:25:18;7.73;;;6.93;;
6131;SDS011;3097;42.692;23.278;2023-04-23T08:27:44;8.10;;;7.40;;
6131;SDS011;3097;42.692;23.278;2023-04-23T08:30:10;7.97;;;7.33;;
6131;SDS011;3097;42.692;23.278;2023-04-23T08:32:37;7.87;;;7.00;;
6131;SDS011;3097;42.692;23.278;2023-04-23T08:35:04;7.60;;;6.93;;
6131;SDS011;3097;42.692;23.278;2023-04-23T08:37:29;8.70;;;6.87;;
6131;SDS011;3097;42.692;23.278;2023-04-23T08:39:55;8.23;;;7.43;;
6131;SDS011;3097;42.692;23.278;2023-04-23T08:42:22;8.73;;;7.93;;
6131;SDS011;3097;42.692;23.278;2023-04-23T08:44:58;9.00;;;7.30;;
6131;SDS011;3097;42.692;23.278;2023-04-23T08:47:24;7.93;;;7.17;;
6131;SDS011;3097;42.692;23.278;2023-04-23T08:49:57;9.33;;;7.03;;
6131;SDS011;3097;42.692;23.278;2023-04-23T08:52:24;7.60;;;7.00;;
6131;SDS011;3097;42.692;23.278;2023-04-23T08:54:57;7.87;;;7.17;;
6131;SDS011;3097;42.692;23.278;2023-04-23T08:57:25;7.77;;;7.03;;
6131;SDS011;3097;42.692;23.278;2023-04-23T08:59:52;7.63;;;6.93;;
6131;SDS011;3097;42.692;23.278;2023-04-23T09:02:17;8.70;;;7.83;;
6131;SDS011;3097;42.692;23.278;2023-04-23T09:04:46;8.47;;;7.60;;
6131;SDS011;3097;42.692;23.278;2023-04-23T09:07:12;7.87;;;7.23;;
6131;SDS011;3097;42.692;23.278;2023-04-23T09:09:39;8.17;;;7.37;;
6131;SDS011;3097;42.692;23.278;2023-04-23T09:12:05;8.13;;;7.43;;
6131;SDS011;3097;42.692;23.278;2023-04-23T09:14:33;9.03;;;8.10;;
6131;SDS011;3097;42.692;23.278;2023-04-23T09:16:59;8.47;;;7.67;;
6131;SDS011;3097;42.692;23.278;2023-04-23T09:19:25;8.40;;;7.50;;
6131;SDS011;3097;42.692;23.278;2023-04-23T09:22:10;9.90;;;8.53;;
6131;SDS011;3097;42.692;23.278;2023-04-23T09:24:36;8.37;;;7.40;;
6131;SDS011;3097;42.692;23.278;2023-04-23T09:27:01;8.73;;;7.90;;
6131;SDS011;3097;42.692;23.278;2023-04-23T09:29:27;9.23;;;7.57;;
6131;SDS011;3097;42.692;23.278;2023-04-23T09:31:57;8.40;;;7.47;;
6131;SDS011;3097;42.692;23.278;2023-04-23T09:34:33;10.10;;;7.27;;
6131;SDS011;3097;42.692;23.278;2023-04-23T09:37:00;9.83;;;7.37;;
6131;SDS011;3097;42.692;23.278;2023-04-23T09:39:27;9.00;;;7.80;;
6131;SDS011;3097;42.692;23.278;2023-04-23T09:41:54;8.63;;;7.77;;
6131;SDS011;3097;42.692;23.278;2023-04-23T09:44:29;10.23;;;7.30;;
6131;SDS011;3097;42.692;23.278;2023-04-23T09:46:56;8.60;;;7.80;;
6131;SDS011;3097;42.692;23.278;2023-04-23T09:49:30;8.87;;;7.60;;
6131;SDS011;3097;42.692;23.278;2023-04-23T09:51:55;11.57;;;7.10;;
6131;SDS011;3097;42.692;23.278;2023-04-23T09:54:21;7.63;;;6.97;;
6131;SDS011;3097;42.692;23.278;2023-04-23T09:56:48;9.20;;;7.87;;
6131;SDS011;3097;42.692;23.278;2023-04-23T09:59:21;8.30;;;7.47;;
6131;SDS011;3097;42.692;23.278;2023-04-23T10:01:51;8.37;;;7.20;;
6131;SDS011;3097;42.692;23.278;2023-04-23T10:04:18;8.77;;;7.87;;
6131;SDS011;3097;42.692;23.278;2023-04-23T10:06:52;8.57;;;7.70;;
6131;SDS011;3097;42.692;23.278;2023-04-23T10:09:21;8.23;;;7.53;;
6131;SDS011;3097;42.692;23.278;2023-04-23T10:11:52;8.17;;;7.37;;
6131;SDS011;3097;42.692;23.278;2023-04-23T10:14:19;12.17;;;7.77;;
6131;SDS011;3097;42.692;23.278;2023-04-23T10:16:45;12.17;;;7.57;;
6131;SDS011;3097;42.692;23.278;2023-04-23T10:19:15;10.47;;;6.90;;
6131;SDS011;3097;42.692;23.278;2023-04-23T10:21:43;8.33;;;7.07;;
6131;SDS011;3097;42.692;23.278;2023-04-23T10:24:11;8.03;;;7.20;;
6131;SDS011;3097;42.692;23.278;2023-04-23T10:26:39;8.73;;;7.83;;
6131;SDS011;3097;42.692;23.278;2023-04-23T10:29:08;8.10;;;7.13;;
6131;SDS011;3097;42.692;23.278;2023-04-23T10:31:40;8.40;;;7.30;;
6131;SDS011;3097;42.692;23.278;2023-04-23T10:34:07;8.17;;;7.47;;
6131;SDS011;3097;42.692;23.278;2023-04-23T10:36:34;7.83;;;7.03;;
6131;SDS011;3097;42.692;23.278;2023-04-23T10:39:01;7.00;;;6.40;;
6131;SDS011;3097;42.692;23.278;2023-04-23T10:41:35;8.17;;;7.43;;
6131;SDS011;3097;42.692;23.278;2023-04-23T10:44:03;7.70;;;7.10;;
6131;SDS011;3097;42.692;23.278;2023-04-23T10:46:29;7.67;;;7.07;;
6131;SDS011;3097;42.692;23.278;2023-04-23T10:49:13;8.60;;;7.30;;
6131;SDS011;3097;42.692;23.278;2023-04-23T10:51:40;7.67;;;7.07;;
6131;SDS011;3097;42.692;23.278;2023-04-23T10:54:09;7.57;;;6.83;;
6131;SDS011;3097;42.692;23.278;2023-04-23T10:56:38;7.57;;;6.83;;
6131;SDS011;3097;42.692;23.278;2023-04-23T10:59:26;7.83;;;6.97;;
6131;SDS011;3097;42.692;23.278;2023-04-23T11:01:53;7.37;;;6.70;;
6131;SDS011;3097;42.692;23.278;2023-04-23T11:04:22;6.83;;;6.33;;
6131;SDS011;3097;42.692;23.278;2023-04-23T11:06:50;6.97;;;6.20;;
6131;SDS011;3097;42.692;23.278;2023-04-23T11:09:29;6.70;;;6.20;;
6131;SDS011;3097;42.692;23.278;2023-04-23T11:12:12;6.80;;;6.20;;
6131;SDS011;3097;42.692;23.278;2023-04-23T11:14:51;7.00;;;6.30;;
6131;SDS011;3097;42.692;23.278;2023-04-23T11:20:09;6.23;;;5.73;;
6131;SDS011;3097;42.692;23.278;2023-04-23T11:22:47;6.63;;;6.13;;
6131;SDS011;3097;42.692;23.278;2023-04-23T11:25:21;7.80;;;6.00;;
6131;SDS011;3097;42.692;23.278;2023-04-23T11:27:51;7.17;;;6.23;;
6131;SDS011;3097;42.692;23.278;2023-04-23T11:30:21;7.50;;;6.00;;
6131;SDS011;3097;42.692;23.278;2023-04-23T11:32:49;7.03;;;6.33;;
6131;SDS011;3097;42.692;23.278;2023-04-23T11:35:17;5.87;;;5.37;;
6131;SDS011;3097;42.692;23.278;2023-04-23T11:37:44;6.77;;;6.17;;
6131;SDS011;3097;42.692;23.278;2023-04-23T11:40:13;6.60;;;6.00;;
6131;SDS011;3097;42.692;23.278;2023-04-23T11:42:47;6.33;;;5.73;;
6131;SDS011;3097;42.692;23.278;2023-04-23T11:45:15;6.33;;;5.73;;
6131;SDS011;3097;42.692;23.278;2023-04-23T11:47:42;6.40;;;5.80;;
6131;SDS011;3097;42.692;23.278;2023-04-23T11:50:09;7.73;;;6.93;;
6131;SDS011;3097;42.692;23.278;2023-04-23T11:52:41;7.37;;;5.93;;
6131;SDS011;3097;42.692;23.278;2023-04-23T11:55:07;7.00;;;6.30;;
6131;SDS011;3097;42.692;23.278;2023-04-23T11:57:34;7.80;;;5.80;;
6131;SDS011;3097;42.692;23.278;2023-04-23T12:00:10;6.77;;;6.07;;
6131;SDS011;3097;42.692;23.278;2023-04-23T12:02:50;6.07;;;5.57;;
6131;SDS011;3097;42.692;23.278;2023-04-23T12:06:01;6.90;;;5.70;;
6131;SDS011;3097;42.692;23.278;2023-04-23T12:08:13;6.20;;;5.47;;
6131;SDS011;3097;42.692;23.278;2023-04-23T12:10:53;6.37;;;5.83;;
6131;SDS011;3097;42.692;23.278;2023-04-23T12:13:23;8.40;;;5.23;;
6131;SDS011;3097;42.692;23.278;2023-04-23T12:15:58;5.60;;;5.10;;
6131;SDS011;3097;42.692;23.278;2023-04-23T12:18:29;5.90;;;5.40;;
6131;SDS011;3097;42.692;23.278;2023-04-23T12:20:56;6.00;;;5.57;;
6131;SDS011;3097;42.692;23.278;2023-04-23T12:23:29;6.07;;;5.50;;
6131;SDS011;3097;42.692;23.278;2023-04-23T12:25:55;5.63;;;5.23;;
6131;SDS011;3097;42.692;23.278;2023-04-23T12:28:24;5.40;;;4.90;;
6131;SDS011;3097;42.692;23.278;2023-04-23T12:30:50;5.60;;;5.20;;
6131;SDS011;3097;42.692;23.278;2023-04-23T12:33:16;5.40;;;5.00;;
6131;SDS011;3097;42.692;23.278;2023-04-23T12:40:54;9.13;;;7.63;;
6131;SDS011;3097;42.692;23.278;2023-04-23T12:43:21;5.90;;;5.30;;
6131;SDS011;3097;42.692;23.278;2023-04-23T12:45:48;9.47;;;8.47;;
6131;SDS011;3097;42.692;23.278;2023-04-23T12:48:14;9.47;;;7.53;;
6131;SDS011;3097;42.692;23.278;2023-04-23T12:50:40;5.93;;;5.43;;
6131;SDS011;3097;42.692;23.278;2023-04-23T12:53:05;6.30;;;5.70;;
6131;SDS011;3097;42.692;23.278;2023-04-23T12:55:32;5.63;;;5.13;;
6131;SDS011;3097;42.692;23.278;2023-04-23T12:57:57;7.83;;;7.17;;
6131;SDS011;3097;42.692;23.278;2023-04-23T13:00:23;5.10;;;4.60;;
6131;SDS011;3097;42.692;23.278;2023-04-23T13:02:49;5.83;;;5.33;;
6131;SDS011;3097;42.692;23.278;2023-04-23T13:05:15;8.60;;;6.73;;
6131;SDS011;3097;42.692;23.278;2023-04-23T13:07:40;11.67;;;9.57;;
6131;SDS011;3097;42.692;23.278;2023-04-23T13:10:07;7.87;;;7.10;;
6131;SDS011;3097;42.692;23.278;2023-04-23T13:12:32;5.87;;;5.27;;
6131;SDS011;3097;42.692;23.278;2023-04-23T13:14:58;6.63;;;5.70;;
6131;SDS011;3097;42.692;23.278;2023-04-23T13:17:24;5.90;;;5.40;;
6131;SDS011;3097;42.692;23.278;2023-04-23T13:19:50;4.80;;;4.50;;
6131;SDS011;3097;42.692;23.278;2023-04-23T13:22:16;7.60;;;5.40;;
6131;SDS011;3097;42.692;23.278;2023-04-23T13:24:41;6.37;;;4.93;;
6131;SDS011;3097;42.692;23.278;2023-04-23T13:27:07;5.40;;;5.00;;
6131;SDS011;3097;42.692;23.278;2023-04-23T13:29:32;5.23;;;4.80;;
6131;SDS011;3097;42.692;23.278;2023-04-23T13:31:58;5.53;;;5.03;;
6131;SDS011;3097;42.692;23.278;2023-04-23T13:34:24;5.00;;;4.67;;
6131;SDS011;3097;42.692;23.278;2023-04-23T13:36:50;5.57;;;5.13;;
6131;SDS011;3097;42.692;23.278;2023-04-23T13:39:15;6.80;;;4.90;;
6131;SDS011;3097;42.692;23.278;2023-04-23T13:41:42;5.20;;;4.80;;
6131;SDS011;3097;42.692;23.278;2023-04-23T13:44:08;6.10;;;4.80;;
6131;SDS011;3097;42.692;23.278;2023-04-23T13:46:33;4.70;;;4.30;;
6131;SDS011;3097;42.692;23.278;2023-04-23T13:48:59;5.00;;;4.60;;
6131;SDS011;3097;42.692;23.278;2023-04-23T13:51:25;5.03;;;4.57;;
6131;SDS011;3097;42.692;23.278;2023-04-23T13:53:50;4.50;;;4.10;;
6131;SDS011;3097;42.692;23.278;2023-04-23T13:56:16;5.27;;;4.60;;
6131;SDS011;3097;42.692;23.278;2023-04-23T13:58:41;5.13;;;4.73;;
6131;SDS011;3097;42.692;23.278;2023-04-23T14:01:12;5.57;;;5.07;;
6131;SDS011;3097;42.692;23.278;2023-04-23T14:03:39;6.23;;;4.80;;
6131;SDS011;3097;42.692;23.278;2023-04-23T14:06:05;7.40;;;6.13;;
6131;SDS011;3097;42.692;23.278;2023-04-23T14:08:31;4.53;;;4.17;;
6131;SDS011;3097;42.692;23.278;2023-04-23T14:10:56;7.25;;;6.65;;
6131;SDS011;3097;42.692;23.278;2023-04-23T14:13:22;5.90;;;5.50;;
6131;SDS011;3097;42.692;23.278;2023-04-23T14:15:47;6.80;;;6.17;;
6131;SDS011;3097;42.692;23.278;2023-04-23T14:18:13;5.67;;;5.20;;
6131;SDS011;3097;42.692;23.278;2023-04-23T14:20:38;10.80;;;6.23;;
6131;SDS011;3097;42.692;23.278;2023-04-23T14:25:56;4.33;;;4.00;;
6131;SDS011;3097;42.692;23.278;2023-04-23T14:28:36;4.63;;;4.27;;
6131;SDS011;3097;42.692;23.278;2023-04-23T14:31:04;5.70;;;4.33;;
6131;SDS011;3097;42.692;23.278;2023-04-23T14:33:29;4.80;;;4.13;;
6131;SDS011;3097;42.692;23.278;2023-04-23T14:35:55;4.63;;;3.93;;
6131;SDS011;3097;42.692;23.278;2023-04-23T14:38:21;4.93;;;4.50;;
6131;SDS011;3097;42.692;23.278;2023-04-23T14:40:47;4.50;;;4.10;;
6131;SDS011;3097;42.692;23.278;2023-04-23T14:43:12;4.77;;;4.07;;
6131;SDS011;3097;42.692;23.278;2023-04-23T14:45:37;4.03;;;3.73;;
6131;SDS011;3097;42.692;23.278;2023-04-23T14:48:03;5.80;;;5.30;;
6131;SDS011;3097;42.692;23.278;2023-04-23T14:50:28;8.63;;;7.73;;
6131;SDS011;3097;42.692;23.278;2023-04-23T14:52:54;4.73;;;4.33;;
6131;SDS011;3097;42.692;23.278;2023-04-23T14:55:20;4.80;;;4.33;;
6131;SDS011;3097;42.692;23.278;2023-04-23T14:57:49;5.00;;;4.60;;
6131;SDS011;3097;42.692;23.278;2023-04-23T15:00:15;5.30;;;4.27;;